createdAt,value
2022-09-23T00:03:42.657Z,37.80
2022-09-23T00:06:12.322Z,37.50
2022-09-23T00:08:40.405Z,37.60
2022-09-23T00:11:16.384Z,36.50
2022-09-23T00:13:45.093Z,38.00
2022-09-23T00:16:15.007Z,38.10
2022-09-23T00:18:42.518Z,54.30
2022-09-23T00:21:11.963Z,38.30
2022-09-23T00:23:40.693Z,38.90
2022-09-23T00:26:09.102Z,38.50
2022-09-23T00:31:05.577Z,38.90
2022-09-23T00:33:32.850Z,38.50
2022-09-23T00:36:05.940Z,55.70
2022-09-23T00:38:34.015Z,46.70
2022-09-23T00:43:58.647Z,48.10
2022-09-23T00:46:31.020Z,53.00
2022-09-23T00:49:10.949Z,37.90
2022-09-23T00:51:41.610Z,56.30
2022-09-23T00:56:39.330Z,39.90
2022-09-23T00:59:09.610Z,39.90
2022-09-23T01:01:37.683Z,40.00
2022-09-23T01:04:06.954Z,40.00
2022-09-23T01:11:38.124Z,40.50
2022-09-23T01:14:13.761Z,38.80
2022-09-23T01:16:58.793Z,38.80
2022-09-23T01:19:43.498Z,39.00
2022-09-23T01:22:22.854Z,40.90
2022-09-23T01:25:05.483Z,39.20
2022-09-23T01:27:59.445Z,50.50
2022-09-23T01:31:04.165Z,39.50
2022-09-23T01:41:25.612Z,39.40
2022-09-23T01:46:58.668Z,41.20
2022-09-23T01:49:32.503Z,41.40
2022-09-23T01:52:10.042Z,41.40
2022-09-23T01:54:42.230Z,41.30
2022-09-23T01:57:18.814Z,57.30
2022-09-23T01:59:51.015Z,41.70
2022-09-23T02:02:21.971Z,41.70
2022-09-23T02:05:02.328Z,42.60
2022-09-23T02:07:44.994Z,57.80
2022-09-23T02:10:14.095Z,41.90
2022-09-23T02:12:43.998Z,57.70
2022-09-23T02:15:15.607Z,42.20
2022-09-23T02:18:10.072Z,40.90
2022-09-23T02:20:39.760Z,42.20
2022-09-23T02:23:13.267Z,42.40
2022-09-23T02:26:04.986Z,46.50
2022-09-23T02:28:52.495Z,40.70
2022-09-23T02:33:58.725Z,42.90
2022-09-23T02:36:32.244Z,42.60
2022-09-23T02:39:08.706Z,40.80
2022-09-23T02:41:51.490Z,50.60
2022-09-23T02:44:20.496Z,42.80
2022-09-23T02:49:23.276Z,43.10
2022-09-23T02:51:51.143Z,43.20
2022-09-23T02:54:37.401Z,41.10
2022-09-23T02:57:06.358Z,59.00
2022-09-23T02:59:34.260Z,42.70
2022-09-23T03:02:21.844Z,60.00
2022-09-23T03:05:18.155Z,43.70
2022-09-23T03:08:18.915Z,59.90
2022-09-23T03:11:13.460Z,59.20
2022-09-23T03:14:19.774Z,49.70
2022-09-23T03:17:01.458Z,57.50
2022-09-23T03:19:47.773Z,41.90
2022-09-23T03:22:25.005Z,43.80
2022-09-23T03:24:54.447Z,48.90
2022-09-23T03:27:26.724Z,59.30
2022-09-23T03:29:55.017Z,43.50
2022-09-23T03:32:27.848Z,43.70
2022-09-23T03:34:57.660Z,43.80
2022-09-23T03:37:47.729Z,43.90
2022-09-23T03:40:29.843Z,42.10
2022-09-23T03:45:29.652Z,43.70
2022-09-23T03:47:56.479Z,51.10
2022-09-23T03:52:50.954Z,61.00
2022-09-23T03:55:19.467Z,44.20
2022-09-23T03:57:46.590Z,61.10
2022-09-23T04:00:14.671Z,43.90
2022-09-23T04:05:10.413Z,45.00
2022-09-23T04:10:05.885Z,44.10
2022-09-23T04:34:38.482Z,60.90
2022-09-23T04:37:05.242Z,55.50
2022-09-23T05:04:13.777Z,61.70
2022-09-23T05:09:16.206Z,54.80
2022-09-23T05:16:37.793Z,61.60
2022-09-23T05:24:00.777Z,61.10
2022-09-23T05:26:30.133Z,43.50
2022-09-23T05:31:27.364Z,44.50
2022-09-23T05:33:59.507Z,55.60
2022-09-23T05:36:28.058Z,44.80
2022-09-23T05:41:25.951Z,49.40
2022-09-23T05:43:54.705Z,44.20
2022-09-23T05:46:30.368Z,42.90
2022-09-23T05:49:08.160Z,44.30
2022-09-23T05:54:04.281Z,47.00
2022-09-23T05:56:32.808Z,44.30
2022-09-23T05:59:01.361Z,44.20
2022-09-23T06:01:32.146Z,44.30
2022-09-23T06:04:00.334Z,44.30
2022-09-23T06:06:34.918Z,43.00
2022-09-23T06:11:34.138Z,42.50
2022-09-23T06:16:31.861Z,44.30
2022-09-23T06:21:35.244Z,50.90
2022-09-23T06:31:29.163Z,59.40
2022-09-23T06:44:14.627Z,43.20
2022-09-23T06:46:42.171Z,58.70
2022-09-23T06:56:34.831Z,58.20
2022-09-23T07:04:01.746Z,57.00
2022-09-23T07:21:15.559Z,39.90
2022-09-23T07:23:44.649Z,39.20
2022-09-23T07:26:11.833Z,43.00
2022-09-23T07:31:12.027Z,38.80
2022-09-23T07:33:44.102Z,38.60
2022-09-23T07:36:13.962Z,38.00
2022-09-23T07:41:15.543Z,37.80
2022-09-23T07:46:14.543Z,37.10
2022-09-23T07:48:41.614Z,42.90
2022-09-23T07:51:12.463Z,36.90
2022-09-23T07:58:35.112Z,36.30
2022-09-23T08:01:07.338Z,52.40
2022-09-23T08:03:35.155Z,50.90
2022-09-23T08:06:14.010Z,50.40
2022-09-23T08:08:44.521Z,34.00
2022-09-23T08:11:14.173Z,33.80
2022-09-23T08:13:41.572Z,32.70
2022-09-23T08:16:11.328Z,32.20
2022-09-23T08:18:38.538Z,39.50
2022-09-23T08:23:33.886Z,46.60
2022-09-23T08:26:02.463Z,31.70
2022-09-23T08:30:57.369Z,46.50
2022-09-23T08:35:52.618Z,29.80
2022-09-23T08:38:20.687Z,43.50
2022-09-23T08:40:49.822Z,29.00
2022-09-23T08:43:29.850Z,28.80
2022-09-23T08:46:00.268Z,28.70
2022-09-23T08:48:34.722Z,43.50
2022-09-23T08:51:11.061Z,28.00
2022-09-23T08:53:38.604Z,32.60
2022-09-23T08:56:14.688Z,27.70
2022-09-23T08:59:05.160Z,28.20
2022-09-23T09:01:51.876Z,43.40
2022-09-23T09:04:20.694Z,28.00
2022-09-23T09:06:54.343Z,27.60
2022-09-23T09:09:55.101Z,27.70
2022-09-23T09:12:44.900Z,27.30
2022-09-23T09:15:18.753Z,41.20
2022-09-23T09:23:16.846Z,27.30
2022-09-23T09:26:02.978Z,26.80
2022-09-23T09:28:41.684Z,27.00
2022-09-23T09:31:39.894Z,27.00
2022-09-23T09:34:41.215Z,40.20
2022-09-23T09:37:31.752Z,26.50
2022-09-23T09:42:45.025Z,36.00
2022-09-23T09:45:24.115Z,39.80
2022-09-23T09:48:10.806Z,39.20
2022-09-23T09:50:51.927Z,26.50
2022-09-23T09:53:32.111Z,25.40
2022-09-23T09:56:05.633Z,25.10
2022-09-23T09:58:35.070Z,25.60
2022-09-23T10:01:02.100Z,38.20
2022-09-23T10:03:39.440Z,38.00
2022-09-23T10:06:35.852Z,25.00
2022-09-23T10:11:30.727Z,30.20
2022-09-23T10:14:00.541Z,24.00
2022-09-23T10:21:27.889Z,23.60
2022-09-23T10:23:58.568Z,23.10
2022-09-23T10:26:33.051Z,23.20
2022-09-23T10:29:29.999Z,22.00
2022-09-23T10:32:40.028Z,34.00
2022-09-23T10:35:09.572Z,21.50
2022-09-23T10:37:39.697Z,21.80
2022-09-23T10:40:57.700Z,21.60
2022-09-23T10:44:30.007Z,25.30
2022-09-23T10:47:16.277Z,22.30
2022-09-23T10:50:08.172Z,29.90
2022-09-23T10:52:46.451Z,21.00
2022-09-23T10:55:41.705Z,29.90
2022-09-23T10:58:52.576Z,22.00
2022-09-23T11:04:19.277Z,21.10
2022-09-23T11:06:59.622Z,33.30
2022-09-23T11:09:41.382Z,32.40
2022-09-23T11:12:21.327Z,28.90
2022-09-23T11:15:00.854Z,20.20
2022-09-23T11:18:08.375Z,31.90
2022-09-23T11:20:54.507Z,31.40
2022-09-23T11:23:37.205Z,20.20
2022-09-23T11:26:07.144Z,31.10
2022-09-23T11:28:54.989Z,19.40
2022-09-23T11:31:34.385Z,19.20
2022-09-23T11:34:08.140Z,25.90
2022-09-23T11:36:50.369Z,19.00
2022-09-23T11:39:28.015Z,18.70
2022-09-23T11:41:59.269Z,18.10
2022-09-23T11:44:51.813Z,17.50
2022-09-23T11:47:23.907Z,17.60
2022-09-23T11:49:58.945Z,17.60
2022-09-23T11:52:39.962Z,25.70
2022-09-23T11:55:22.620Z,25.60
2022-09-23T11:58:05.723Z,15.50
2022-09-23T12:00:39.089Z,25.70
2022-09-23T12:05:41.944Z,23.80
2022-09-23T12:08:32.427Z,15.80
2022-09-23T12:13:45.105Z,16.20
2022-09-23T12:16:58.990Z,26.20
2022-09-23T12:20:02.971Z,27.00
2022-09-23T12:22:36.616Z,27.30
2022-09-23T12:25:37.737Z,17.50
2022-09-23T12:28:11.276Z,17.90
2022-09-23T12:33:22.054Z,28.40
2022-09-23T12:38:21.378Z,21.10
2022-09-23T12:40:48.737Z,27.80
2022-09-23T12:43:18.318Z,18.10
2022-09-23T12:45:45.595Z,27.50
2022-09-23T12:48:18.382Z,27.60
2022-09-23T12:50:49.303Z,17.00
2022-09-23T12:53:34.305Z,16.50
2022-09-23T12:58:43.844Z,25.20
2022-09-23T13:01:22.999Z,22.30
2022-09-23T13:04:16.699Z,25.20
2022-09-23T13:06:57.871Z,21.30
2022-09-23T13:09:37.295Z,18.20
2022-09-23T13:12:08.833Z,24.70
2022-09-23T13:19:36.595Z,21.20
2022-09-23T13:22:11.066Z,15.70
2022-09-23T13:24:42.291Z,15.70
2022-09-23T13:27:20.215Z,15.70
2022-09-23T13:30:01.231Z,26.40
2022-09-23T13:32:38.234Z,26.10
2022-09-23T13:35:14.523Z,16.30
2022-09-23T13:37:47.541Z,16.20
2022-09-23T13:40:24.949Z,16.30
2022-09-23T13:42:59.394Z,17.00
2022-09-23T13:45:28.129Z,17.20
2022-09-23T13:48:01.666Z,26.70
2022-09-23T13:50:34.224Z,17.20
2022-09-23T13:53:07.543Z,26.00
2022-09-23T13:55:37.579Z,25.90
2022-09-23T13:58:21.008Z,16.80
2022-09-23T14:00:49.943Z,16.90
2022-09-23T14:03:38.468Z,17.10
2022-09-23T14:06:12.368Z,16.90
2022-09-23T14:08:46.137Z,17.20
2022-09-23T14:11:29.542Z,27.70
2022-09-23T14:13:57.921Z,17.90
2022-09-23T14:16:28.128Z,17.40
2022-09-23T14:19:00.115Z,18.10
2022-09-23T14:21:39.089Z,28.60
2022-09-23T14:24:20.995Z,18.70
2022-09-23T14:26:53.218Z,29.70
2022-09-23T14:29:26.186Z,19.30
2022-09-23T14:32:01.485Z,19.50
2022-09-23T14:34:53.075Z,20.10
2022-09-23T14:37:44.856Z,30.40
2022-09-23T14:40:39.930Z,20.60
2022-09-23T14:43:15.778Z,31.90
2022-09-23T14:45:50.446Z,21.30
2022-09-23T14:48:23.126Z,32.40
2022-09-23T14:50:54.500Z,21.80
2022-09-23T14:56:06.787Z,33.20
2022-09-23T14:58:58.676Z,22.40
2022-09-23T15:01:32.136Z,33.40
2022-09-23T15:04:11.352Z,23.00
2022-09-23T15:06:42.141Z,34.40
2022-09-23T15:09:17.638Z,23.40
2022-09-23T15:11:44.586Z,25.10
2022-09-23T15:17:01.295Z,24.10
2022-09-23T15:19:31.499Z,36.80
2022-09-23T15:21:58.687Z,34.30
2022-09-23T15:24:41.626Z,37.30
2022-09-23T15:27:26.191Z,37.10
2022-09-23T15:32:22.186Z,25.80
2022-09-23T15:34:50.439Z,26.10
2022-09-23T15:42:11.976Z,39.10
2022-09-23T15:49:41.953Z,41.00
2022-09-23T15:52:12.162Z,41.30
2022-09-23T15:57:06.677Z,33.00
2022-09-23T15:59:33.547Z,42.20
2022-09-23T16:02:05.874Z,29.20
2022-09-23T16:04:32.995Z,43.40
2022-09-23T16:09:31.502Z,44.70
2022-09-23T16:21:50.482Z,46.50
2022-09-23T16:24:18.713Z,31.90
2022-09-23T16:26:48.132Z,46.60
2022-09-23T16:29:15.322Z,47.10
2022-09-23T16:36:42.191Z,33.70
2022-09-23T16:39:12.502Z,48.20
2022-09-23T16:41:40.143Z,34.20
2022-09-23T16:44:09.241Z,48.10
2022-09-23T16:46:37.045Z,48.40
2022-09-23T16:49:04.680Z,49.30
2022-09-23T16:51:38.257Z,49.30
2022-09-23T16:54:10.846Z,35.90
2022-09-23T16:56:41.842Z,36.40
2022-09-23T17:06:51.365Z,51.00
2022-09-23T17:09:23.216Z,51.00
2022-09-23T17:12:04.472Z,37.20
2022-09-23T17:14:31.889Z,53.00
2022-09-23T17:19:26.330Z,52.60
2022-09-23T17:21:53.837Z,38.20
2022-09-23T17:44:08.063Z,54.80
2022-09-23T17:49:03.944Z,54.50
2022-09-23T17:56:26.901Z,40.70
2022-09-23T17:58:54.272Z,55.20
2022-09-23T18:01:23.713Z,40.90
2022-09-23T18:03:58.695Z,55.10
2022-09-23T18:06:28.628Z,50.60
2022-09-23T18:11:25.101Z,42.90
2022-09-23T18:13:57.171Z,41.00
2022-09-23T18:16:26.455Z,41.40
2022-09-23T18:18:54.653Z,41.40
2022-09-23T18:21:22.821Z,45.20
2022-09-23T18:23:50.479Z,45.70
2022-09-23T18:26:19.379Z,41.80
2022-09-23T18:28:48.086Z,56.00
2022-09-23T18:31:17.268Z,41.90
2022-09-23T18:41:07.189Z,57.70
2022-09-23T18:46:13.118Z,42.50
2022-09-23T18:51:31.870Z,42.60
2022-09-23T18:54:01.298Z,58.10
2022-09-23T18:56:33.576Z,48.20
2022-09-23T18:59:00.885Z,57.60
2022-09-23T19:03:56.181Z,59.00
2022-09-23T19:06:23.718Z,49.70
2022-09-23T19:08:55.088Z,42.80
2022-09-23T19:11:23.787Z,43.10
2022-09-23T19:13:55.357Z,43.00
2022-09-23T19:16:23.413Z,58.10
2022-09-23T19:21:20.771Z,44.20
2022-09-23T19:23:50.567Z,44.00
2022-09-23T19:26:20.492Z,58.50
2022-09-23T19:28:52.089Z,58.90
2022-09-23T19:31:23.000Z,52.50
2022-09-23T19:33:56.737Z,58.60
2022-09-23T19:36:32.201Z,44.00
2022-09-23T19:39:08.549Z,58.60
2022-09-23T19:41:35.746Z,59.10
2022-09-23T19:46:32.460Z,44.20
2022-09-23T19:49:00.280Z,44.00
2022-09-23T19:51:28.247Z,43.80
2022-09-23T19:53:55.078Z,55.80
2022-09-23T19:58:58.175Z,54.20
2022-09-23T20:01:29.368Z,43.90
2022-09-23T20:03:56.779Z,59.30
2022-09-23T20:06:23.601Z,53.60
2022-09-23T20:11:27.601Z,59.10
2022-09-23T20:14:00.995Z,59.00
2022-09-23T20:16:32.155Z,60.00
2022-09-23T20:21:29.201Z,44.90
2022-09-23T20:26:42.473Z,55.70
2022-09-23T20:39:08.051Z,61.00
2022-09-23T20:41:38.057Z,45.30
2022-09-23T20:44:13.847Z,45.50
2022-09-23T20:49:17.613Z,50.20
2022-09-23T20:51:45.147Z,50.40
2022-09-23T20:56:39.627Z,58.70
2022-09-23T21:01:35.451Z,61.80
2022-09-23T21:16:22.898Z,61.50
2022-09-23T21:18:51.336Z,45.90
2022-09-23T21:21:19.733Z,46.00
2022-09-23T21:23:47.592Z,61.10
2022-09-23T21:26:21.632Z,61.30
2022-09-23T21:28:50.273Z,46.60
2022-09-23T21:31:23.161Z,61.50
2022-09-23T21:34:03.344Z,61.70
2022-09-23T21:36:37.010Z,46.70
2022-09-23T21:39:05.628Z,46.80
2022-09-23T21:41:33.488Z,61.50
2022-09-23T21:44:02.509Z,59.40
2022-09-23T21:51:27.877Z,54.20
2022-09-23T21:53:56.797Z,47.70
2022-09-23T21:56:29.454Z,49.50
2022-09-23T21:58:58.600Z,47.90
2022-09-23T22:01:28.141Z,63.60
2022-09-23T22:03:58.165Z,47.90
2022-09-23T22:06:27.454Z,47.80
2022-09-23T22:09:00.179Z,48.50
2022-09-23T22:11:48.425Z,47.90
2022-09-23T22:14:17.190Z,48.80
2022-09-23T22:16:44.847Z,47.80
2022-09-23T22:19:13.660Z,64.10
2022-09-23T22:21:41.971Z,48.10
2022-09-23T22:24:10.460Z,48.60
2022-09-23T22:26:44.622Z,47.80
2022-09-23T22:29:32.559Z,48.50
2022-09-23T22:32:19.921Z,53.70
2022-09-23T22:34:50.578Z,48.80
2022-09-23T22:37:28.917Z,48.90
2022-09-23T22:42:23.154Z,52.90
2022-09-23T22:44:50.876Z,49.30
2022-09-23T22:47:19.838Z,50.50
2022-09-23T22:49:47.606Z,61.00
2022-09-23T22:52:20.774Z,49.10
2022-09-23T22:54:47.590Z,63.00
2022-09-23T22:57:15.278Z,64.90
2022-09-23T22:59:47.810Z,64.40
2022-09-23T23:02:16.577Z,49.30
2022-09-23T23:04:45.189Z,65.20
2022-09-23T23:07:19.897Z,65.80
2022-09-23T23:09:50.775Z,64.60
2022-09-23T23:14:47.841Z,64.90
2022-09-23T23:17:15.060Z,65.70
2022-09-23T23:22:09.198Z,66.20
2022-09-23T23:36:56.655Z,65.20
2022-09-23T23:39:24.951Z,52.20
2022-09-23T23:41:56.110Z,65.00
2022-09-23T23:44:25.206Z,60.00
2022-09-23T23:51:47.895Z,65.80
